sensor_id;sensor_type;location;lat;lon;timestamp;pressure;altitude;pressure_sealevel;temperature
44429;BMP180;30134;47.866;-4.222;2022-07-29T00:02:27;101645.00;;;28.60
44429;BMP180;30134;47.866;-4.222;2022-07-29T00:04:53;101652.00;;;28.70
44429;BMP180;30134;47.866;-4.222;2022-07-29T00:07:19;101648.00;;;28.60
44429;BMP180;30134;47.866;-4.222;2022-07-29T00:09:45;101649.00;;;28.50
44429;BMP180;30134;47.866;-4.222;2022-07-29T00:12:11;101653.00;;;28.60
44429;BMP180;30134;47.866;-4.222;2022-07-29T00:14:37;101656.00;;;28.50
44429;BMP180;30134;47.866;-4.222;2022-07-29T00:17:03;101655.00;;;28.50
44429;BMP180;30134;47.866;-4.222;2022-07-29T00:19:29;101652.00;;;28.40
44429;BMP180;30134;47.866;-4.222;2022-07-29T00:21:55;101651.00;;;28.50
44429;BMP180;30134;47.866;-4.222;2022-07-29T00:24:21;101638.00;;;28.40
44429;BMP180;30134;47.866;-4.222;2022-07-29T00:26:47;101638.00;;;28.40
44429;BMP180;30134;47.866;-4.222;2022-07-29T00:29:13;101636.00;;;28.60
44429;BMP180;30134;47.866;-4.222;2022-07-29T00:31:39;101634.00;;;28.50
44429;BMP180;30134;47.866;-4.222;2022-07-29T00:34:11;101634.00;;;28.50
44429;BMP180;30134;47.866;-4.222;2022-07-29T00:36:56;101633.00;;;28.40
44429;BMP180;30134;47.866;-4.222;2022-07-29T00:39:24;101628.00;;;28.30
44429;BMP180;30134;47.866;-4.222;2022-07-29T00:41:50;101630.00;;;28.50
44429;BMP180;30134;47.866;-4.222;2022-07-29T00:44:16;101624.00;;;28.60
44429;BMP180;30134;47.866;-4.222;2022-07-29T00:46:42;101624.00;;;28.50
44429;BMP180;30134;47.866;-4.222;2022-07-29T00:49:08;101632.00;;;28.60
44429;BMP180;30134;47.866;-4.222;2022-07-29T00:51:37;101624.00;;;28.50
44429;BMP180;30134;47.866;-4.222;2022-07-29T00:54:05;101629.00;;;28.30
44429;BMP180;30134;47.866;-4.222;2022-07-29T00:56:32;101627.00;;;28.50
44429;BMP180;30134;47.866;-4.222;2022-07-29T00:58:59;101632.00;;;28.50
44429;BMP180;30134;47.866;-4.222;2022-07-29T01:01:26;101629.00;;;28.40
44429;BMP180;30134;47.866;-4.222;2022-07-29T01:03:54;101626.00;;;28.30
44429;BMP180;30134;47.866;-4.222;2022-07-29T01:06:20;101617.00;;;28.60
44429;BMP180;30134;47.866;-4.222;2022-07-29T01:08:48;101616.00;;;28.30
44429;BMP180;30134;47.866;-4.222;2022-07-29T01:11:15;101615.00;;;28.50
44429;BMP180;30134;47.866;-4.222;2022-07-29T01:13:44;101615.00;;;28.50
44429;BMP180;30134;47.866;-4.222;2022-07-29T01:16:31;101616.00;;;28.50
44429;BMP180;30134;47.866;-4.222;2022-07-29T01:21:58;101624.00;;;28.40
44429;BMP180;30134;47.866;-4.222;2022-07-29T01:30:18;101618.00;;;28.50
44429;BMP180;30134;47.866;-4.222;2022-07-29T01:32:47;101617.00;;;28.50
44429;BMP180;30134;47.866;-4.222;2022-07-29T01:35:30;101622.00;;;28.80
44429;BMP180;30134;47.866;-4.222;2022-07-29T01:38:21;101620.00;;;28.50
44429;BMP180;30134;47.866;-4.222;2022-07-29T01:40:54;101619.00;;;28.60
44429;BMP180;30134;47.866;-4.222;2022-07-29T01:44:23;101621.00;;;28.60
44429;BMP180;30134;47.866;-4.222;2022-07-29T01:46:35;101621.00;;;28.40
44429;BMP180;30134;47.866;-4.222;2022-07-29T01:49:15;101621.00;;;28.60
44429;BMP180;30134;47.866;-4.222;2022-07-29T01:51:47;101625.00;;;28.40
44429;BMP180;30134;47.866;-4.222;2022-07-29T01:56:56;101627.00;;;28.40
44429;BMP180;30134;47.866;-4.222;2022-07-29T01:59:24;101626.00;;;28.50
44429;BMP180;30134;47.866;-4.222;2022-07-29T02:01:54;101619.00;;;28.40
44429;BMP180;30134;47.866;-4.222;2022-07-29T02:04:21;101621.00;;;28.40
44429;BMP180;30134;47.866;-4.222;2022-07-29T02:06:50;101624.00;;;28.50
44429;BMP180;30134;47.866;-4.222;2022-07-29T02:09:20;101625.00;;;28.60
44429;BMP180;30134;47.866;-4.222;2022-07-29T02:11:53;101625.00;;;28.30
44429;BMP180;30134;47.866;-4.222;2022-07-29T02:14:22;101620.00;;;28.60
44429;BMP180;30134;47.866;-4.222;2022-07-29T02:16:52;101623.00;;;28.60
44429;BMP180;30134;47.866;-4.222;2022-07-29T02:19:22;101622.00;;;28.40
44429;BMP180;30134;47.866;-4.222;2022-07-29T02:21:51;101620.00;;;28.40
44429;BMP180;30134;47.866;-4.222;2022-07-29T02:24:19;101619.00;;;28.40
44429;BMP180;30134;47.866;-4.222;2022-07-29T02:26:47;101620.00;;;28.50
44429;BMP180;30134;47.866;-4.222;2022-07-29T02:29:15;101616.00;;;28.50
44429;BMP180;30134;47.866;-4.222;2022-07-29T02:31:44;101612.00;;;28.30
44429;BMP180;30134;47.866;-4.222;2022-07-29T02:34:13;101608.00;;;28.50
44429;BMP180;30134;47.866;-4.222;2022-07-29T02:36:47;101608.00;;;28.60
44429;BMP180;30134;47.866;-4.222;2022-07-29T02:39:15;101607.00;;;28.60
44429;BMP180;30134;47.866;-4.222;2022-07-29T02:41:53;101612.00;;;28.50
44429;BMP180;30134;47.866;-4.222;2022-07-29T02:44:24;101600.00;;;28.60
44429;BMP180;30134;47.866;-4.222;2022-07-29T02:46:53;101604.00;;;28.50
44429;BMP180;30134;47.866;-4.222;2022-07-29T02:49:40;101598.00;;;28.70
44429;BMP180;30134;47.866;-4.222;2022-07-29T02:55:19;101609.00;;;28.80
44429;BMP180;30134;47.866;-4.222;2022-07-29T02:57:59;101604.00;;;28.60
44429;BMP180;30134;47.866;-4.222;2022-07-29T03:00:33;101600.00;;;28.50
44429;BMP180;30134;47.866;-4.222;2022-07-29T03:03:06;101604.00;;;28.60
44429;BMP180;30134;47.866;-4.222;2022-07-29T03:05:33;101606.00;;;28.50
44429;BMP180;30134;47.866;-4.222;2022-07-29T03:08:04;101599.00;;;28.50
44429;BMP180;30134;47.866;-4.222;2022-07-29T03:10:32;101601.00;;;28.50
44429;BMP180;30134;47.866;-4.222;2022-07-29T03:12:59;101593.00;;;28.50
44429;BMP180;30134;47.866;-4.222;2022-07-29T03:15:26;101595.00;;;28.60
44429;BMP180;30134;47.866;-4.222;2022-07-29T03:17:53;101604.00;;;28.50
44429;BMP180;30134;47.866;-4.222;2022-07-29T03:20:19;101603.00;;;28.70
44429;BMP180;30134;47.866;-4.222;2022-07-29T03:22:45;101601.00;;;28.40
44429;BMP180;30134;47.866;-4.222;2022-07-29T03:25:17;101604.00;;;28.60
44429;BMP180;30134;47.866;-4.222;2022-07-29T03:27:44;101597.00;;;28.60
44429;BMP180;30134;47.866;-4.222;2022-07-29T03:30:12;101606.00;;;28.50
44429;BMP180;30134;47.866;-4.222;2022-07-29T03:32:39;101604.00;;;28.50
44429;BMP180;30134;47.866;-4.222;2022-07-29T03:35:07;101605.00;;;28.80
44429;BMP180;30134;47.866;-4.222;2022-07-29T03:37:40;101601.00;;;28.60
44429;BMP180;30134;47.866;-4.222;2022-07-29T03:40:08;101589.00;;;28.50
44429;BMP180;30134;47.866;-4.222;2022-07-29T03:42:39;101591.00;;;28.40
44429;BMP180;30134;47.866;-4.222;2022-07-29T03:45:09;101593.00;;;28.60
44429;BMP180;30134;47.866;-4.222;2022-07-29T03:47:40;101592.00;;;28.40
44429;BMP180;30134;47.866;-4.222;2022-07-29T03:50:11;101593.00;;;28.40
44429;BMP180;30134;47.866;-4.222;2022-07-29T03:52:39;101593.00;;;28.40
44429;BMP180;30134;47.866;-4.222;2022-07-29T03:55:06;101593.00;;;28.70
44429;BMP180;30134;47.866;-4.222;2022-07-29T03:57:33;101592.00;;;28.60
44429;BMP180;30134;47.866;-4.222;2022-07-29T04:00:03;101594.00;;;28.60
44429;BMP180;30134;47.866;-4.222;2022-07-29T04:02:31;101596.00;;;28.40
44429;BMP180;30134;47.866;-4.222;2022-07-29T04:04:58;101595.00;;;28.50
44429;BMP180;30134;47.866;-4.222;2022-07-29T04:07:24;101593.00;;;28.50
44429;BMP180;30134;47.866;-4.222;2022-07-29T04:09:51;101591.00;;;28.60
44429;BMP180;30134;47.866;-4.222;2022-07-29T04:12:17;101596.00;;;28.40
44429;BMP180;30134;47.866;-4.222;2022-07-29T04:14:43;101595.00;;;28.40
44429;BMP180;30134;47.866;-4.222;2022-07-29T04:17:09;101591.00;;;28.40
44429;BMP180;30134;47.866;-4.222;2022-07-29T04:19:35;101585.00;;;28.60
44429;BMP180;30134;47.866;-4.222;2022-07-29T04:22:01;101595.00;;;28.50
44429;BMP180;30134;47.866;-4.222;2022-07-29T04:24:27;101594.00;;;28.60
44429;BMP180;30134;47.866;-4.222;2022-07-29T04:26:54;101591.00;;;28.50
44429;BMP180;30134;47.866;-4.222;2022-07-29T04:29:20;101596.00;;;28.50
44429;BMP180;30134;47.866;-4.222;2022-07-29T04:31:48;101594.00;;;28.50
44429;BMP180;30134;47.866;-4.222;2022-07-29T04:34:14;101606.00;;;28.60
44429;BMP180;30134;47.866;-4.222;2022-07-29T04:36:40;101601.00;;;28.40
44429;BMP180;30134;47.866;-4.222;2022-07-29T04:39:12;101597.00;;;28.60
44429;BMP180;30134;47.866;-4.222;2022-07-29T04:41:38;101596.00;;;28.60
44429;BMP180;30134;47.866;-4.222;2022-07-29T04:44:04;101602.00;;;28.60
44429;BMP180;30134;47.866;-4.222;2022-07-29T04:46:31;101600.00;;;28.50
44429;BMP180;30134;47.866;-4.222;2022-07-29T04:48:57;101594.00;;;28.70
44429;BMP180;30134;47.866;-4.222;2022-07-29T04:51:23;101602.00;;;28.40
44429;BMP180;30134;47.866;-4.222;2022-07-29T04:53:49;101598.00;;;28.50
44429;BMP180;30134;47.866;-4.222;2022-07-29T04:56:15;101606.00;;;28.40
44429;BMP180;30134;47.866;-4.222;2022-07-29T04:58:41;101605.00;;;28.50
44429;BMP180;30134;47.866;-4.222;2022-07-29T05:01:07;101613.00;;;28.40
44429;BMP180;30134;47.866;-4.222;2022-07-29T05:03:33;101612.00;;;28.40
44429;BMP180;30134;47.866;-4.222;2022-07-29T05:05:59;101607.00;;;28.80
44429;BMP180;30134;47.866;-4.222;2022-07-29T05:08:25;101608.00;;;28.50
44429;BMP180;30134;47.866;-4.222;2022-07-29T05:10:51;101609.00;;;28.60
44429;BMP180;30134;47.866;-4.222;2022-07-29T05:13:16;101605.00;;;28.60
44429;BMP180;30134;47.866;-4.222;2022-07-29T05:15:42;101612.00;;;28.60
44429;BMP180;30134;47.866;-4.222;2022-07-29T05:18:08;101613.00;;;28.50
44429;BMP180;30134;47.866;-4.222;2022-07-29T05:20:34;101614.00;;;28.50
44429;BMP180;30134;47.866;-4.222;2022-07-29T05:23:01;101624.00;;;28.50
44429;BMP180;30134;47.866;-4.222;2022-07-29T05:25:29;101618.00;;;28.60
44429;BMP180;30134;47.866;-4.222;2022-07-29T05:27:55;101629.00;;;28.80
44429;BMP180;30134;47.866;-4.222;2022-07-29T05:30:22;101628.00;;;28.70
44429;BMP180;30134;47.866;-4.222;2022-07-29T05:32:48;101627.00;;;28.50
44429;BMP180;30134;47.866;-4.222;2022-07-29T05:35:14;101630.00;;;28.60
44429;BMP180;30134;47.866;-4.222;2022-07-29T05:37:41;101634.00;;;28.50
44429;BMP180;30134;47.866;-4.222;2022-07-29T05:40:13;101644.00;;;28.60
44429;BMP180;30134;47.866;-4.222;2022-07-29T05:42:39;101649.00;;;28.40
44429;BMP180;30134;47.866;-4.222;2022-07-29T05:45:06;101648.00;;;28.70
44429;BMP180;30134;47.866;-4.222;2022-07-29T05:47:32;101649.00;;;28.50
44429;BMP180;30134;47.866;-4.222;2022-07-29T05:49:58;101645.00;;;28.60
44429;BMP180;30134;47.866;-4.222;2022-07-29T05:52:23;101648.00;;;28.60
44429;BMP180;30134;47.866;-4.222;2022-07-29T05:54:49;101648.00;;;28.80
44429;BMP180;30134;47.866;-4.222;2022-07-29T05:57:23;101655.00;;;28.70
44429;BMP180;30134;47.866;-4.222;2022-07-29T05:59:50;101652.00;;;28.90
44429;BMP180;30134;47.866;-4.222;2022-07-29T06:02:16;101653.00;;;28.70
44429;BMP180;30134;47.866;-4.222;2022-07-29T06:04:43;101656.00;;;28.60
44429;BMP180;30134;47.866;-4.222;2022-07-29T06:07:09;101666.00;;;28.50
44429;BMP180;30134;47.866;-4.222;2022-07-29T06:09:39;101665.00;;;28.90
44429;BMP180;30134;47.866;-4.222;2022-07-29T06:12:05;101666.00;;;28.60
44429;BMP180;30134;47.866;-4.222;2022-07-29T06:14:31;101668.00;;;28.70
44429;BMP180;30134;47.866;-4.222;2022-07-29T06:16:58;101673.00;;;28.60
44429;BMP180;30134;47.866;-4.222;2022-07-29T06:19:23;101672.00;;;28.80
44429;BMP180;30134;47.866;-4.222;2022-07-29T06:21:49;101678.00;;;28.40
44429;BMP180;30134;47.866;-4.222;2022-07-29T06:24:16;101682.00;;;28.50
44429;BMP180;30134;47.866;-4.222;2022-07-29T06:26:42;101679.00;;;28.60
44429;BMP180;30134;47.866;-4.222;2022-07-29T06:29:09;101682.00;;;28.90
44429;BMP180;30134;47.866;-4.222;2022-07-29T06:31:38;101677.00;;;28.70
44429;BMP180;30134;47.866;-4.222;2022-07-29T06:34:05;101679.00;;;28.80
44429;BMP180;30134;47.866;-4.222;2022-07-29T06:36:34;101681.00;;;28.60
44429;BMP180;30134;47.866;-4.222;2022-07-29T06:39:00;101681.00;;;28.70
44429;BMP180;30134;47.866;-4.222;2022-07-29T06:41:32;101684.00;;;28.50
44429;BMP180;30134;47.866;-4.222;2022-07-29T06:44:02;101691.00;;;28.80
44429;BMP180;30134;47.866;-4.222;2022-07-29T06:46:30;101694.00;;;28.60
44429;BMP180;30134;47.866;-4.222;2022-07-29T06:48:56;101695.00;;;28.70
44429;BMP180;30134;47.866;-4.222;2022-07-29T06:51:22;101708.00;;;28.50
44429;BMP180;30134;47.866;-4.222;2022-07-29T06:53:47;101712.00;;;28.60
44429;BMP180;30134;47.866;-4.222;2022-07-29T06:56:13;101707.00;;;28.60
44429;BMP180;30134;47.866;-4.222;2022-07-29T06:58:39;101701.00;;;28.80
44429;BMP180;30134;47.866;-4.222;2022-07-29T07:01:08;101706.00;;;28.60
44429;BMP180;30134;47.866;-4.222;2022-07-29T07:03:34;101709.00;;;28.70
44429;BMP180;30134;47.866;-4.222;2022-07-29T07:06:00;101714.00;;;28.70
44429;BMP180;30134;47.866;-4.222;2022-07-29T07:08:26;101715.00;;;28.80
44429;BMP180;30134;47.866;-4.222;2022-07-29T07:10:53;101708.00;;;28.60
44429;BMP180;30134;47.866;-4.222;2022-07-29T07:13:21;101713.00;;;28.80
44429;BMP180;30134;47.866;-4.222;2022-07-29T07:15:49;101728.00;;;28.60
44429;BMP180;30134;47.866;-4.222;2022-07-29T07:18:17;101718.00;;;28.60
44429;BMP180;30134;47.866;-4.222;2022-07-29T07:20:44;101721.00;;;28.50
44429;BMP180;30134;47.866;-4.222;2022-07-29T07:23:10;101719.00;;;28.40
44429;BMP180;30134;47.866;-4.222;2022-07-29T07:25:36;101725.00;;;28.50
44429;BMP180;30134;47.866;-4.222;2022-07-29T07:28:03;101728.00;;;28.60
44429;BMP180;30134;47.866;-4.222;2022-07-29T07:30:29;101736.00;;;28.70
44429;BMP180;30134;47.866;-4.222;2022-07-29T07:32:55;101735.00;;;28.80
44429;BMP180;30134;47.866;-4.222;2022-07-29T07:35:21;101733.00;;;29.00
44429;BMP180;30134;47.866;-4.222;2022-07-29T07:37:47;101731.00;;;28.90
44429;BMP180;30134;47.866;-4.222;2022-07-29T07:40:14;101736.00;;;28.80
44429;BMP180;30134;47.866;-4.222;2022-07-29T07:42:46;101733.00;;;28.70
44429;BMP180;30134;47.866;-4.222;2022-07-29T07:45:13;101736.00;;;28.90
44429;BMP180;30134;47.866;-4.222;2022-07-29T07:47:41;101739.00;;;28.60
44429;BMP180;30134;47.866;-4.222;2022-07-29T07:50:10;101743.00;;;28.90
44429;BMP180;30134;47.866;-4.222;2022-07-29T07:52:52;101749.00;;;28.80
44429;BMP180;30134;47.866;-4.222;2022-07-29T07:55:19;101745.00;;;28.90
44429;BMP180;30134;47.866;-4.222;2022-07-29T07:57:46;101749.00;;;28.80
44429;BMP180;30134;47.866;-4.222;2022-07-29T08:00:14;101753.00;;;28.80
44429;BMP180;30134;47.866;-4.222;2022-07-29T08:02:41;101752.00;;;28.90
44429;BMP180;30134;47.866;-4.222;2022-07-29T08:05:09;101747.00;;;28.80
44429;BMP180;30134;47.866;-4.222;2022-07-29T08:07:35;101744.00;;;28.50
44429;BMP180;30134;47.866;-4.222;2022-07-29T08:10:04;101757.00;;;28.80
44429;BMP180;30134;47.866;-4.222;2022-07-29T08:12:33;101746.00;;;28.80
44429;BMP180;30134;47.866;-4.222;2022-07-29T08:14:59;101758.00;;;28.70
44429;BMP180;30134;47.866;-4.222;2022-07-29T08:17:25;101750.00;;;28.80
44429;BMP180;30134;47.866;-4.222;2022-07-29T08:19:52;101754.00;;;28.80
44429;BMP180;30134;47.866;-4.222;2022-07-29T08:22:18;101747.00;;;28.50
44429;BMP180;30134;47.866;-4.222;2022-07-29T08:24:44;101753.00;;;28.80
44429;BMP180;30134;47.866;-4.222;2022-07-29T08:27:18;101749.00;;;28.80
44429;BMP180;30134;47.866;-4.222;2022-07-29T08:29:45;101758.00;;;28.90
44429;BMP180;30134;47.866;-4.222;2022-07-29T08:32:11;101757.00;;;28.70
44429;BMP180;30134;47.866;-4.222;2022-07-29T08:34:37;101757.00;;;28.90
44429;BMP180;30134;47.866;-4.222;2022-07-29T08:37:03;101765.00;;;28.60
44429;BMP180;30134;47.866;-4.222;2022-07-29T08:39:29;101764.00;;;28.80
44429;BMP180;30134;47.866;-4.222;2022-07-29T08:41:55;101759.00;;;28.60
44429;BMP180;30134;47.866;-4.222;2022-07-29T08:44:28;101755.00;;;28.90
44429;BMP180;30134;47.866;-4.222;2022-07-29T08:46:54;101760.00;;;28.50
44429;BMP180;30134;47.866;-4.222;2022-07-29T08:49:20;101760.00;;;28.70
44429;BMP180;30134;47.866;-4.222;2022-07-29T08:51:46;101764.00;;;28.60
44429;BMP180;30134;47.866;-4.222;2022-07-29T08:54:17;101755.00;;;28.90
44429;BMP180;30134;47.866;-4.222;2022-07-29T08:56:51;101760.00;;;28.60
44429;BMP180;30134;47.866;-4.222;2022-07-29T08:59:20;101758.00;;;28.80
44429;BMP180;30134;47.866;-4.222;2022-07-29T09:01:48;101758.00;;;28.60
44429;BMP180;30134;47.866;-4.222;2022-07-29T09:04:16;101757.00;;;28.70
44429;BMP180;30134;47.866;-4.222;2022-07-29T09:06:46;101759.00;;;28.40
44429;BMP180;30134;47.866;-4.222;2022-07-29T09:09:13;101757.00;;;28.70
44429;BMP180;30134;47.866;-4.222;2022-07-29T09:11:41;101749.00;;;28.70
44429;BMP180;30134;47.866;-4.222;2022-07-29T09:14:08;101749.00;;;28.90
44429;BMP180;30134;47.866;-4.222;2022-07-29T09:16:54;101750.00;;;28.50
44429;BMP180;30134;47.866;-4.222;2022-07-29T09:19:35;101756.00;;;28.80
44429;BMP180;30134;47.866;-4.222;2022-07-29T09:22:04;101747.00;;;28.50
44429;BMP180;30134;47.866;-4.222;2022-07-29T09:24:44;101745.00;;;28.70
44429;BMP180;30134;47.866;-4.222;2022-07-29T09:29:54;101747.00;;;28.80
44429;BMP180;30134;47.866;-4.222;2022-07-29T09:32:20;101742.00;;;28.50
44429;BMP180;30134;47.866;-4.222;2022-07-29T09:34:46;101747.00;;;28.60
44429;BMP180;30134;47.866;-4.222;2022-07-29T09:37:26;101755.00;;;28.70
44429;BMP180;30134;47.866;-4.222;2022-07-29T09:39:53;101749.00;;;28.90
44429;BMP180;30134;47.866;-4.222;2022-07-29T09:42:28;101760.00;;;28.60
44429;BMP180;30134;47.866;-4.222;2022-07-29T09:45:01;101759.00;;;28.80
44429;BMP180;30134;47.866;-4.222;2022-07-29T09:47:45;101755.00;;;28.90
44429;BMP180;30134;47.866;-4.222;2022-07-29T09:50:12;101756.00;;;28.90
44429;BMP180;30134;47.866;-4.222;2022-07-29T09:52:50;101756.00;;;28.40
44429;BMP180;30134;47.866;-4.222;2022-07-29T09:55:17;101753.00;;;28.80
44429;BMP180;30134;47.866;-4.222;2022-07-29T09:57:44;101755.00;;;28.80
44429;BMP180;30134;47.866;-4.222;2022-07-29T10:00:17;101755.00;;;28.80
44429;BMP180;30134;47.866;-4.222;2022-07-29T10:02:46;101759.00;;;28.40
44429;BMP180;30134;47.866;-4.222;2022-07-29T10:05:25;101757.00;;;28.80
44429;BMP180;30134;47.866;-4.222;2022-07-29T10:07:55;101758.00;;;28.60
44429;BMP180;30134;47.866;-4.222;2022-07-29T10:10:34;101752.00;;;28.80
44429;BMP180;30134;47.866;-4.222;2022-07-29T10:13:05;101743.00;;;28.50
44429;BMP180;30134;47.866;-4.222;2022-07-29T10:15:35;101750.00;;;28.70
44429;BMP180;30134;47.866;-4.222;2022-07-29T10:18:13;101750.00;;;28.50
44429;BMP180;30134;47.866;-4.222;2022-07-29T10:20:40;101749.00;;;28.60
44429;BMP180;30134;47.866;-4.222;2022-07-29T10:23:06;101757.00;;;28.70
44429;BMP180;30134;47.866;-4.222;2022-07-29T10:25:32;101753.00;;;28.70
44429;BMP180;30134;47.866;-4.222;2022-07-29T10:28:02;101750.00;;;28.80
44429;BMP180;30134;47.866;-4.222;2022-07-29T10:30:29;101757.00;;;28.70
44429;BMP180;30134;47.866;-4.222;2022-07-29T10:36:10;101752.00;;;28.50
44429;BMP180;30134;47.866;-4.222;2022-07-29T10:44:23;101760.00;;;28.80
44429;BMP180;30134;47.866;-4.222;2022-07-29T10:46:57;101761.00;;;28.70
44429;BMP180;30134;47.866;-4.222;2022-07-29T10:49:27;101756.00;;;28.80
44429;BMP180;30134;47.866;-4.222;2022-07-29T10:52:24;101750.00;;;28.50
44429;BMP180;30134;47.866;-4.222;2022-07-29T10:54:53;101758.00;;;28.60
44429;BMP180;30134;47.866;-4.222;2022-07-29T10:57:30;101760.00;;;28.50
44429;BMP180;30134;47.866;-4.222;2022-07-29T11:05:19;101774.00;;;28.90
44429;BMP180;30134;47.866;-4.222;2022-07-29T11:10:38;101767.00;;;28.60
44429;BMP180;30134;47.866;-4.222;2022-07-29T11:13:04;101762.00;;;28.70
44429;BMP180;30134;47.866;-4.222;2022-07-29T11:15:56;101765.00;;;28.50
44429;BMP180;30134;47.866;-4.222;2022-07-29T11:18:23;101765.00;;;28.60
44429;BMP180;30134;47.866;-4.222;2022-07-29T11:20:51;101772.00;;;28.60
44429;BMP180;30134;47.866;-4.222;2022-07-29T11:23:23;101776.00;;;28.60
44429;BMP180;30134;47.866;-4.222;2022-07-29T11:31:45;101782.00;;;28.60
44429;BMP180;30134;47.866;-4.222;2022-07-29T11:34:32;101785.00;;;28.70
44429;BMP180;30134;47.866;-4.222;2022-07-29T11:39:34;101779.00;;;28.70
44429;BMP180;30134;47.866;-4.222;2022-07-29T11:45:14;101789.00;;;28.80
44429;BMP180;30134;47.866;-4.222;2022-07-29T11:47:48;101793.00;;;28.70
44429;BMP180;30134;47.866;-4.222;2022-07-29T11:50:32;101791.00;;;28.50
44429;BMP180;30134;47.866;-4.222;2022-07-29T11:52:58;101794.00;;;28.70
44429;BMP180;30134;47.866;-4.222;2022-07-29T11:55:25;101790.00;;;28.70
44429;BMP180;30134;47.866;-4.222;2022-07-29T11:57:56;101791.00;;;28.60
44429;BMP180;30134;47.866;-4.222;2022-07-29T12:00:33;101798.00;;;28.80
44429;BMP180;30134;47.866;-4.222;2022-07-29T12:03:03;101800.00;;;28.60
44429;BMP180;30134;47.866;-4.222;2022-07-29T12:05:43;101801.00;;;28.70
44429;BMP180;30134;47.866;-4.222;2022-07-29T12:08:22;101792.00;;;28.70
44429;BMP180;30134;47.866;-4.222;2022-07-29T12:10:49;101790.00;;;28.70
44429;BMP180;30134;47.866;-4.222;2022-07-29T12:13:19;101785.00;;;28.80
44429;BMP180;30134;47.866;-4.222;2022-07-29T12:15:57;101786.00;;;28.70
44429;BMP180;30134;47.866;-4.222;2022-07-29T12:18:38;101779.00;;;28.70
44429;BMP180;30134;47.866;-4.222;2022-07-29T12:21:17;101778.00;;;28.70
44429;BMP180;30134;47.866;-4.222;2022-07-29T12:23:56;101780.00;;;28.90
44429;BMP180;30134;47.866;-4.222;2022-07-29T12:26:22;101791.00;;;28.80
44429;BMP180;30134;47.866;-4.222;2022-07-29T12:28:48;101786.00;;;28.70
44429;BMP180;30134;47.866;-4.222;2022-07-29T12:31:16;101789.00;;;28.50
44429;BMP180;30134;47.866;-4.222;2022-07-29T12:33:42;101792.00;;;28.70
44429;BMP180;30134;47.866;-4.222;2022-07-29T12:36:08;101801.00;;;28.60
44429;BMP180;30134;47.866;-4.222;2022-07-29T12:38:39;101802.00;;;28.90
44429;BMP180;30134;47.866;-4.222;2022-07-29T12:41:05;101803.00;;;28.80
44429;BMP180;30134;47.866;-4.222;2022-07-29T12:43:32;101793.00;;;28.80
44429;BMP180;30134;47.866;-4.222;2022-07-29T12:46:14;101795.00;;;28.50
44429;BMP180;30134;47.866;-4.222;2022-07-29T12:48:42;101808.00;;;28.60
44429;BMP180;30134;47.866;-4.222;2022-07-29T12:51:10;101813.00;;;28.50
44429;BMP180;30134;47.866;-4.222;2022-07-29T12:53:38;101807.00;;;28.70
44429;BMP180;30134;47.866;-4.222;2022-07-29T12:56:06;101799.00;;;28.60
44429;BMP180;30134;47.866;-4.222;2022-07-29T12:58:42;101804.00;;;28.60
44429;BMP180;30134;47.866;-4.222;2022-07-29T13:01:15;101804.00;;;28.60
44429;BMP180;30134;47.866;-4.222;2022-07-29T13:03:58;101806.00;;;28.70
44429;BMP180;30134;47.866;-4.222;2022-07-29T13:06:40;101808.00;;;28.50
44429;BMP180;30134;47.866;-4.222;2022-07-29T13:11:44;101808.00;;;28.60
44429;BMP180;30134;47.866;-4.222;2022-07-29T13:14:14;101811.00;;;28.50
44429;BMP180;30134;47.866;-4.222;2022-07-29T13:17:13;101806.00;;;28.50
44429;BMP180;30134;47.866;-4.222;2022-07-29T13:19:52;101813.00;;;28.60
44429;BMP180;30134;47.866;-4.222;2022-07-29T13:22:25;101813.00;;;28.60
44429;BMP180;30134;47.866;-4.222;2022-07-29T13:27:19;101813.00;;;28.50
44429;BMP180;30134;47.866;-4.222;2022-07-29T13:29:48;101810.00;;;28.50
44429;BMP180;30134;47.866;-4.222;2022-07-29T13:32:22;101812.00;;;28.40
44429;BMP180;30134;47.866;-4.222;2022-07-29T13:34:48;101821.00;;;28.50
44429;BMP180;30134;47.866;-4.222;2022-07-29T13:37:15;101833.00;;;28.50
44429;BMP180;30134;47.866;-4.222;2022-07-29T13:39:42;101829.00;;;28.60
44429;BMP180;30134;47.866;-4.222;2022-07-29T13:42:09;101827.00;;;28.50
44429;BMP180;30134;47.866;-4.222;2022-07-29T13:44:35;101839.00;;;28.40
44429;BMP180;30134;47.866;-4.222;2022-07-29T13:47:01;101834.00;;;28.40
44429;BMP180;30134;47.866;-4.222;2022-07-29T13:49:28;101836.00;;;28.50
44429;BMP180;30134;47.866;-4.222;2022-07-29T13:51:54;101848.00;;;28.70
44429;BMP180;30134;47.866;-4.222;2022-07-29T13:54:22;101845.00;;;28.80
44429;BMP180;30134;47.866;-4.222;2022-07-29T13:56:50;101847.00;;;28.70
44429;BMP180;30134;47.866;-4.222;2022-07-29T13:59:16;101859.00;;;28.40
44429;BMP180;30134;47.866;-4.222;2022-07-29T14:01:43;101859.00;;;28.70
44429;BMP180;30134;47.866;-4.222;2022-07-29T14:04:10;101858.00;;;28.70
44429;BMP180;30134;47.866;-4.222;2022-07-29T14:06:36;101848.00;;;28.50
44429;BMP180;30134;47.866;-4.222;2022-07-29T14:09:04;101857.00;;;28.40
44429;BMP180;30134;47.866;-4.222;2022-07-29T14:11:36;101851.00;;;28.60
44429;BMP180;30134;47.866;-4.222;2022-07-29T14:14:06;101851.00;;;28.60
44429;BMP180;30134;47.866;-4.222;2022-07-29T14:16:33;101841.00;;;28.60
44429;BMP180;30134;47.866;-4.222;2022-07-29T14:18:59;101853.00;;;28.50
44429;BMP180;30134;47.866;-4.222;2022-07-29T14:21:25;101842.00;;;28.50
44429;BMP180;30134;47.866;-4.222;2022-07-29T14:23:58;101842.00;;;28.60
44429;BMP180;30134;47.866;-4.222;2022-07-29T14:26:24;101841.00;;;28.60
44429;BMP180;30134;47.866;-4.222;2022-07-29T14:28:50;101840.00;;;28.60
44429;BMP180;30134;47.866;-4.222;2022-07-29T14:31:16;101851.00;;;28.50
44429;BMP180;30134;47.866;-4.222;2022-07-29T14:33:42;101852.00;;;28.50
44429;BMP180;30134;47.866;-4.222;2022-07-29T14:36:08;101850.00;;;28.50
44429;BMP180;30134;47.866;-4.222;2022-07-29T14:38:36;101847.00;;;28.50
44429;BMP180;30134;47.866;-4.222;2022-07-29T14:41:03;101847.00;;;28.60
44429;BMP180;30134;47.866;-4.222;2022-07-29T14:43:29;101838.00;;;28.60
44429;BMP180;30134;47.866;-4.222;2022-07-29T14:45:55;101842.00;;;28.80
44429;BMP180;30134;47.866;-4.222;2022-07-29T14:48:24;101848.00;;;28.70